METAR πλησιέστερων αεροδρομίων

 

LGIR - Iraklion Airport
Απόσταση από το σταθμό: ΒΔ 62km
Ενημερώθηκε: 07/04/2020 13:50
Συννεφιά
Συννεφιά
 Ανεμος από ΒΔ
Ανεμος: ΒΔ 35 km/h
Θερμοκρασία: 13°C
Σημείο Δρόσου: 11°C
Υγρασία: 88%
Βαρόμετρο: 1018 hPa
Νέφη: Συννεφιά
Ορατότητα: 10 km
Λεπτομέρειες νεφών: Λίγα σύννεφα 305 m
Σχεδόν νεφελώδης 762 m
Συννεφιά 2438 m
2020/04/07 10:50 LGIR 071050Z 32019KT 9999 FEW010 BKN025 OVC080 13/11 Q1018 NOSIG
LGSA - Souda/Chania Airport
Απόσταση από το σταθμό: ΔΒΔ 154km
Ενημερώθηκε: 07/04/2020 13:50
Συννεφιά
Συννεφιά
 Ανεμος από Β
Ανεμος: Β 26 km/h
Θερμοκρασία: 10°C
Αίσθηση Ψύχους: 7°C
Σημείο Δρόσου: 9°C
Υγρασία: 94%
Βαρόμετρο: 1020 hPa
Νέφη: Συννεφιά
Ορατότητα: 10 km
Λεπτομέρειες νεφών: Λίγα σύννεφα 305 m
Σχεδόν νεφελώδης 762 m
Συννεφιά 2438 m
2020/04/07 10:50 LGSA 071050Z 35014KT 9999 FEW010 BKN025 OVC080 10/09 Q1020